Time;durP1;ratioP1;P1;durP2;ratioP2;P2;SDS_P1;SDS_P2;PMS_P1;PMS_P2;Temp;Humidity;BMP_temperature;BMP_pressure;BME280_temperature;BME280_humidity;BME280_pressure;Samples;Min_cycle;Max_cycle;Signal;HPM_P1;HPM_P2
2022/06/29 00:02:11;;;;;;;14.40;11.60;;;14.40;84.40;;;;;;5114835;27;20065;-68
2022/06/29 00:04:36;;;;;;;13.55;11.70;;;14.50;84.00;;;;;;5111527;27;20365;-69
2022/06/29 00:07:02;;;;;;;13.63;12.20;;;14.60;84.60;;;;;;5111620;28;20358;-68
2022/06/29 00:09:28;;;;;;;13.43;10.57;;;14.60;85.00;;;;;;5120317;27;20053;-68
2022/06/29 00:11:54;;;;;;;14.40;12.13;;;14.60;85.00;;;;;;5115617;27;20024;-68
2022/06/29 00:14:19;;;;;;;13.52;11.65;;;14.70;85.30;;;;;;5121087;27;20015;-68
2022/06/29 00:16:45;;;;;;;14.75;10.63;;;14.70;85.10;;;;;;5111822;27;20023;-69
2022/06/29 00:19:11;;;;;;;13.50;12.05;;;14.80;85.10;;;;;;5116133;27;20145;-68
2022/06/29 00:21:36;;;;;;;16.80;11.95;;;14.80;85.90;;;;;;5116143;27;20111;-68
2022/06/29 00:24:02;;;;;;;12.93;11.55;;;14.70;86.90;;;;;;5113774;27;20443;-68
2022/06/29 00:26:31;;;;;;;14.10;12.15;;;14.50;87.10;;;;;;5110163;27;20034;-68
2022/06/29 00:28:57;;;;;;;13.50;10.63;;;14.50;87.30;;;;;;5111397;28;20064;-68
2022/06/29 00:31:22;;;;;;;14.05;11.60;;;14.50;86.30;;;;;;5115435;27;20472;-68
2022/06/29 00:33:48;;;;;;;14.48;12.90;;;14.50;86.30;;;;;;5109153;27;20027;-68
2022/06/29 00:36:14;;;;;;;13.75;12.35;;;14.50;86.90;;;;;;5117199;28;20019;-68
2022/06/29 00:38:39;;;;;;;12.98;11.68;;;14.40;86.90;;;;;;5115274;27;20442;-67
2022/06/29 00:41:05;;;;;;;12.98;10.43;;;14.40;86.80;;;;;;5119205;27;20039;-68
2022/06/29 00:43:40;;;;;;;13.10;11.30;;;14.40;86.20;;;;;;5115081;28;20039;-67
2022/06/29 00:46:09;;;;;;;14.27;12.38;;;14.40;86.50;;;;;;5104857;28;20023;-68
2022/06/29 00:48:36;;;;;;;13.20;11.35;;;14.30;86.50;;;;;;5119984;27;20390;-68
2022/06/29 00:51:08;;;;;;;13.70;10.82;;;14.20;86.40;;;;;;5115201;28;20042;-68
2022/06/29 00:53:45;;;;;;;18.20;12.57;;;14.10;87.20;;;;;;5114368;28;20020;-67
2022/06/29 00:56:13;;;;;;;14.20;12.70;;;14.00;86.60;;;;;;5111413;28;20073;-68
2022/06/29 00:58:43;;;;;;;16.85;13.63;;;14.00;86.30;;;;;;5113282;28;20024;-67
2022/06/29 01:01:12;;;;;;;13.00;11.57;;;13.90;86.20;;;;;;5111395;28;20028;-67
2022/06/29 01:03:37;;;;;;;17.23;13.68;;;13.90;85.20;;;;;;5116667;28;20360;-68
2022/06/29 01:06:03;;;;;;;18.27;13.35;;;14.00;84.60;;;;;;5113245;28;20119;-68
2022/06/29 01:08:29;;;;;;;15.18;12.18;;;14.00;84.50;;;;;;5115988;28;20032;-69
2022/06/29 01:10:54;;;;;;;13.45;11.50;;;14.00;84.00;;;;;;5109980;28;20015;-68
2022/06/29 01:13:20;;;;;;;16.50;12.27;;;14.10;84.00;;;;;;5113919;28;20070;-68
2022/06/29 01:15:46;;;;;;;11.65;10.20;;;14.10;84.30;;;;;;5115008;28;20031;-69
2022/06/29 01:18:11;;;;;;;17.75;12.55;;;14.00;84.40;;;;;;5112986;28;20024;-69
2022/06/29 01:20:37;;;;;;;17.85;13.38;;;13.90;83.80;;;;;;5113679;28;20054;-68
2022/06/29 01:23:05;;;;;;;14.18;12.68;;;14.00;83.20;;;;;;5113970;28;20446;-68
2022/06/29 01:25:31;;;;;;;19.08;13.25;;;14.10;83.50;;;;;;5116737;28;20297;-68
2022/06/29 01:27:58;;;;;;;17.77;14.10;;;14.10;83.60;;;;;;5125861;27;20088;-68
2022/06/29 01:30:24;;;;;;;17.65;12.93;;;14.00;83.90;;;;;;5117512;27;20028;-67
2022/06/29 01:32:50;;;;;;;17.30;13.52;;;14.00;83.80;;;;;;5114110;27;20045;-68
2022/06/29 01:35:16;;;;;;;14.93;12.55;;;14.00;82.80;;;;;;5119155;27;20234;-68
2022/06/29 01:37:42;;;;;;;17.85;15.07;;;14.20;81.90;;;;;;5120942;27;20451;-68
2022/06/29 01:40:10;;;;;;;16.73;14.57;;;14.40;81.90;;;;;;5114386;27;20365;-68
2022/06/29 01:42:35;;;;;;;14.82;12.50;;;14.30;83.20;;;;;;5121533;27;20041;-68
2022/06/29 01:45:01;;;;;;;16.70;13.57;;;14.20;84.20;;;;;;5121777;27;20414;-68
2022/06/29 01:47:27;;;;;;;14.43;10.57;;;14.10;84.00;;;;;;5120169;27;20035;-68
2022/06/29 01:49:53;;;;;;;22.80;14.65;;;14.00;84.00;;;;;;5114314;27;20028;-68
2022/06/29 01:52:18;;;;;;;15.93;13.20;;;13.90;83.70;;;;;;5122209;27;20106;-67
2022/06/29 01:54:44;;;;;;;14.02;12.50;;;13.90;83.30;;;;;;5118152;27;20034;-68
2022/06/29 01:57:10;;;;;;;18.40;12.93;;;13.90;83.60;;;;;;5117707;27;20025;-68
2022/06/29 01:59:35;;;;;;;17.85;14.57;;;13.90;82.80;;;;;;5109460;27;20016;-69
2022/06/29 02:02:01;;;;;;;17.00;14.95;;;13.90;83.00;;;;;;5113717;27;20030;-68
2022/06/29 02:04:27;;;;;;;17.70;14.85;;;14.00;82.90;;;;;;5121720;27;20023;-68
2022/06/29 02:06:53;;;;;;;18.40;14.98;;;14.00;82.60;;;;;;5116219;27;20084;-68
2022/06/29 02:09:18;;;;;;;16.00;13.95;;;14.00;82.70;;;;;;5114977;27;20035;-68
2022/06/29 02:11:44;;;;;;;17.20;15.45;;;14.10;82.70;;;;;;5117629;27;20035;-68
2022/06/29 02:14:10;;;;;;;20.13;16.40;;;14.10;82.40;;;;;;5127610;27;20114;-68
2022/06/29 02:16:36;;;;;;;17.33;15.30;;;14.20;81.90;;;;;;5118568;27;20418;-68
2022/06/29 02:19:02;;;;;;;15.55;13.70;;;14.30;82.20;;;;;;5115506;27;20085;-68
2022/06/29 02:21:28;;;;;;;18.40;15.48;;;14.30;82.60;;;;;;5111204;27;20346;-69
2022/06/29 02:23:56;;;;;;;19.75;14.38;;;14.30;82.70;;;;;;5120261;27;20098;-68
2022/06/29 02:26:22;;;;;;;14.90;12.57;;;14.20;83.30;;;;;;5116542;27;20304;-67
2022/06/29 02:28:48;;;;;;;16.65;13.75;;;14.10;83.30;;;;;;5116069;27;20027;-68
2022/06/29 02:36:42;;;;;;;18.45;14.38;;;14.10;82.90;;;;;;5110444;27;20135;-68
2022/06/29 02:39:07;;;;;;;15.82;13.13;;;14.10;82.80;;;;;;5115562;27;20327;-68
2022/06/29 02:41:33;;;;;;;13.85;12.20;;;14.10;83.10;;;;;;5112687;27;21768;-68
2022/06/29 02:43:58;;;;;;;18.40;14.43;;;14.00;83.40;;;;;;5112347;27;20050;-68
2022/06/29 02:46:24;;;;;;;15.55;13.43;;;14.00;82.30;;;;;;5099110;27;20038;-68
2022/06/29 02:48:52;;;;;;;18.77;15.20;;;14.00;82.50;;;;;;5115419;27;20020;-68
2022/06/29 02:51:18;;;;;;;18.73;13.20;;;14.00;82.70;;;;;;5117739;27;20057;-68
2022/06/29 02:53:43;;;;;;;16.38;12.10;;;13.90;83.50;;;;;;5115035;27;20108;-68
2022/06/29 02:56:09;;;;;;;16.52;14.77;;;13.80;83.90;;;;;;5117048;27;20016;-68
2022/06/29 02:58:35;;;;;;;18.02;11.82;;;13.70;83.00;;;;;;5116520;27;20016;-68
2022/06/29 03:01:00;;;;;;;16.98;13.15;;;13.60;83.30;;;;;;5114867;27;20046;-68
2022/06/29 03:03:26;;;;;;;17.92;14.95;;;13.60;83.10;;;;;;5115729;27;20336;-68
2022/06/29 03:05:52;;;;;;;13.15;11.32;;;13.60;82.50;;;;;;5111050;28;20106;-69
2022/06/29 03:08:17;;;;;;;18.98;16.77;;;13.60;82.20;;;;;;5115652;27;20939;-68
2022/06/29 03:10:43;;;;;;;18.08;16.05;;;13.70;82.30;;;;;;5117116;27;20031;-68
2022/06/29 03:13:08;;;;;;;16.23;14.43;;;13.70;82.00;;;;;;5116234;27;20026;-68
2022/06/29 03:15:34;;;;;;;22.20;15.85;;;13.70;82.40;;;;;;5108078;28;20107;-67
2022/06/29 03:18:00;;;;;;;17.38;14.82;;;13.60;82.00;;;;;;5115975;27;20059;-68
2022/06/29 03:20:26;;;;;;;21.33;15.85;;;13.60;81.90;;;;;;5107758;27;20016;-68
2022/06/29 03:22:51;;;;;;;18.33;16.30;;;13.70;81.80;;;;;;5118200;27;20094;-68
2022/06/29 03:25:17;;;;;;;17.77;15.65;;;13.70;81.60;;;;;;5118599;27;20110;-68
2022/06/29 03:27:43;;;;;;;20.88;18.13;;;13.80;81.60;;;;;;5117977;27;20055;-68
2022/06/29 03:30:10;;;;;;;24.70;18.40;;;13.80;81.40;;;;;;5112762;27;20356;-68
2022/06/29 03:32:36;;;;;;;21.17;17.52;;;13.80;81.40;;;;;;5115813;27;20023;-68
2022/06/29 03:35:02;;;;;;;16.13;14.43;;;13.90;81.30;;;;;;5120153;27;20024;-68
2022/06/29 03:37:30;;;;;;;15.60;13.32;;;13.80;82.10;;;;;;5117467;27;20650;-68
2022/06/29 03:39:56;;;;;;;16.77;14.98;;;13.70;81.30;;;;;;5117486;27;20027;-68
2022/06/29 03:42:22;;;;;;;18.92;16.63;;;13.80;81.00;;;;;;5115143;27;20049;-68
2022/06/29 03:44:48;;;;;;;20.10;18.02;;;13.80;81.30;;;;;;5102131;27;20044;-67
2022/06/29 03:47:13;;;;;;;14.80;13.27;;;13.80;81.50;;;;;;5115639;27;20055;-67
2022/06/29 03:49:39;;;;;;;13.95;11.98;;;13.80;81.50;;;;;;5116636;27;20080;-67
2022/06/29 03:52:05;;;;;;;16.98;15.05;;;13.80;81.60;;;;;;5112035;28;20023;-68
2022/06/29 03:54:32;;;;;;;17.65;14.57;;;13.70;81.90;;;;;;5113284;27;20019;-67
2022/06/29 03:56:57;;;;;;;18.48;16.55;;;13.60;81.60;;;;;;5115563;27;20030;-68
2022/06/29 03:59:23;;;;;;;22.67;17.98;;;13.70;81.20;;;;;;5111269;28;20321;-70
2022/06/29 04:01:51;;;;;;;21.60;19.33;;;13.70;81.10;;;;;;5113107;27;20030;-69
2022/06/29 04:04:17;;;;;;;16.00;14.32;;;13.80;81.00;;;;;;5120733;27;20072;-68
2022/06/29 04:06:43;;;;;;;19.70;15.95;;;13.80;80.90;;;;;;5110955;28;20026;-69
2022/06/29 04:09:09;;;;;;;16.65;14.95;;;13.80;80.80;;;;;;5113466;28;20023;-69
2022/06/29 04:11:49;;;;;;;13.80;12.40;;;13.80;81.00;;;;;;5112177;27;20059;-69
2022/06/29 04:14:20;;;;;;;18.92;17.02;;;13.90;80.80;;;;;;5122372;27;20034;-68
2022/06/29 04:16:46;;;;;;;16.45;14.73;;;13.90;81.10;;;;;;5116874;27;20015;-69
2022/06/29 04:19:12;;;;;;;15.35;13.82;;;13.90;81.00;;;;;;5107199;27;20316;-68
2022/06/29 04:21:38;;;;;;;14.75;13.25;;;13.90;81.00;;;;;;5111952;28;20036;-70
2022/06/29 04:24:07;;;;;;;13.05;11.70;;;13.90;81.40;;;;;;5118427;27;20038;-68
2022/06/29 04:26:33;;;;;;;15.93;14.35;;;13.90;80.80;;;;;;5113205;27;21698;-67
2022/06/29 04:29:02;;;;;;;14.18;12.75;;;13.90;81.30;;;;;;5112671;28;20133;-68
2022/06/29 04:31:28;;;;;;;16.77;15.00;;;13.90;81.00;;;;;;5111062;27;20043;-68
2022/06/29 04:33:53;;;;;;;16.98;13.95;;;14.00;81.00;;;;;;5113316;27;20116;-68
2022/06/29 04:36:19;;;;;;;16.58;13.43;;;14.00;81.10;;;;;;5112765;28;20028;-68
2022/06/29 04:38:46;;;;;;;18.20;15.80;;;14.00;81.00;;;;;;5110612;28;20016;-68
2022/06/29 04:41:12;;;;;;;17.55;14.38;;;14.10;81.00;;;;;;5112602;27;20095;-68
2022/06/29 04:43:38;;;;;;;17.25;15.45;;;14.20;81.00;;;;;;5115090;27;20164;-68
2022/06/29 04:48:55;;;;;;;16.08;13.98;;;14.30;81.10;;;;;;5114493;28;20038;-68
2022/06/29 04:51:21;;;;;;;12.13;10.93;;;14.30;81.50;;;;;;5106971;28;20028;-68
2022/06/29 04:53:48;;;;;;;13.07;11.75;;;14.50;80.50;;;;;;5110643;28;20034;-67
2022/06/29 04:56:15;;;;;;;17.90;13.07;;;14.60;80.60;;;;;;5121616;28;20024;-68
2022/06/29 04:58:41;;;;;;;13.48;11.88;;;14.80;80.40;;;;;;5113949;28;20443;-68
2022/06/29 05:01:06;;;;;;;14.20;11.93;;;15.00;80.80;;;;;;5107309;28;20034;-68
2022/06/29 05:03:32;;;;;;;14.35;12.88;;;15.00;81.30;;;;;;5114926;27;20030;-68
2022/06/29 05:05:58;;;;;;;11.05;9.88;;;15.00;81.60;;;;;;5113322;28;20027;-68
2022/06/29 05:08:26;;;;;;;10.98;9.57;;;15.00;81.80;;;;;;5118396;27;20034;-68
2022/06/29 05:10:52;;;;;;;12.48;11.18;;;15.10;82.70;;;;;;5116951;27;20111;-68
2022/06/29 05:13:18;;;;;;;14.88;11.80;;;15.00;83.10;;;;;;5114504;27;20058;-68
2022/06/29 05:15:43;;;;;;;14.88;11.45;;;15.10;83.30;;;;;;5110026;28;20056;-68
2022/06/29 05:18:09;;;;;;;12.93;10.30;;;15.10;83.90;;;;;;5117602;27;20039;-67
2022/06/29 05:20:34;;;;;;;11.23;9.30;;;15.10;83.90;;;;;;5111550;27;20084;-68
2022/06/29 05:23:00;;;;;;;13.68;12.07;;;15.20;83.70;;;;;;5120078;27;20062;-68
2022/06/29 05:25:26;;;;;;;10.88;9.48;;;15.30;83.90;;;;;;5118056;27;20036;-68
2022/06/29 05:27:52;;;;;;;12.43;10.77;;;15.30;84.40;;;;;;5117011;27;20031;-68
2022/06/29 05:30:17;;;;;;;11.43;10.10;;;15.40;84.60;;;;;;5114844;27;20052;-68
2022/06/29 05:32:43;;;;;;;12.40;10.77;;;15.40;85.40;;;;;;5111597;27;20098;-67
2022/06/29 05:35:10;;;;;;;10.70;9.55;;;15.60;85.60;;;;;;5112387;27;20048;-69
2022/06/29 05:37:36;;;;;;;14.13;10.00;;;15.70;85.10;;;;;;5125224;27;20106;-68
2022/06/29 05:40:03;;;;;;;10.98;9.13;;;15.80;86.00;;;;;;5120341;27;20016;-67
2022/06/29 05:42:28;;;;;;;11.98;10.77;;;15.80;87.40;;;;;;5113406;27;20312;-68
2022/06/29 05:44:54;;;;;;;12.02;8.98;;;15.80;88.20;;;;;;5114870;27;20032;-68
2022/06/29 05:47:20;;;;;;;11.77;10.35;;;15.80;88.40;;;;;;5118368;27;20047;-68
2022/06/29 05:49:45;;;;;;;10.38;8.52;;;15.90;88.30;;;;;;5114662;27;20106;-67
2022/06/29 05:52:11;;;;;;;10.93;9.02;;;16.00;88.40;;;;;;5115248;27;20030;-68
2022/06/29 05:54:37;;;;;;;14.85;10.45;;;16.10;89.20;;;;;;5113438;27;20032;-68
2022/06/29 05:57:04;;;;;;;10.07;9.02;;;16.20;89.60;;;;;;5117503;27;20046;-68
2022/06/29 05:59:30;;;;;;;11.02;9.00;;;16.20;90.10;;;;;;5116940;27;20063;-67
2022/06/29 06:01:56;;;;;;;12.00;9.93;;;16.20;90.70;;;;;;5118499;27;20043;-67
2022/06/29 06:04:21;;;;;;;10.43;9.23;;;16.30;91.00;;;;;;5130486;27;20026;-67
2022/06/29 06:06:47;;;;;;;9.50;8.27;;;16.40;91.40;;;;;;5115225;27;20028;-67
2022/06/29 06:09:14;;;;;;;8.68;7.78;;;16.50;91.10;;;;;;5116573;27;20027;-68
2022/06/29 06:11:39;;;;;;;12.02;8.45;;;16.80;90.00;;;;;;5120399;27;20030;-68
2022/06/29 06:14:05;;;;;;;10.93;7.90;;;16.90;92.80;;;;;;5118511;27;20102;-68
2022/06/29 06:16:31;;;;;;;9.30;8.30;;;17.00;93.80;;;;;;5131885;27;20430;-68
2022/06/29 06:18:56;;;;;;;11.38;7.70;;;17.20;94.00;;;;;;5125657;27;20027;-68
2022/06/29 06:21:22;;;;;;;13.88;9.88;;;17.50;94.40;;;;;;5112409;28;20024;-67
2022/06/29 06:23:48;;;;;;;11.27;8.38;;;17.80;94.50;;;;;;5118745;27;20152;-68
2022/06/29 06:26:15;;;;;;;9.52;7.30;;;18.10;95.40;;;;;;5124976;27;20055;-68
2022/06/29 06:28:41;;;;;;;9.23;6.70;;;18.40;95.90;;;;;;5115928;28;21588;-68
2022/06/29 06:31:07;;;;;;;16.27;10.10;;;18.70;97.00;;;;;;5117303;27;20027;-67
2022/06/29 06:33:36;;;;;;;11.38;6.22;;;19.10;98.00;;;;;;5118314;27;20443;-68
2022/06/29 06:36:02;;;;;;;6.32;5.60;;;19.20;98.00;;;;;;5119996;27;20036;-68
2022/06/29 06:38:27;;;;;;;8.45;4.93;;;19.50;98.00;;;;;;5119198;27;20019;-68
2022/06/29 06:43:37;;;;;;;8.15;6.18;;;20.40;98.00;;;;;;5117799;27;20046;-67
2022/06/29 06:46:05;;;;;;;7.28;5.95;;;20.60;97.70;;;;;;5117986;27;20331;-68
2022/06/29 06:48:31;;;;;;;9.48;6.28;;;20.40;96.10;;;;;;5117555;27;20034;-67
2022/06/29 06:50:57;;;;;;;10.55;6.25;;;20.40;96.20;;;;;;5120085;27;20323;-68
2022/06/29 06:53:23;;;;;;;8.38;6.13;;;20.50;96.30;;;;;;5128623;27;20024;-67
2022/06/29 06:55:49;;;;;;;6.78;5.25;;;20.70;96.30;;;;;;5120010;27;20027;-69
2022/06/29 06:58:14;;;;;;;7.80;5.55;;;20.80;94.90;;;;;;5119463;27;20123;-68
2022/06/29 07:00:43;;;;;;;7.53;6.05;;;20.90;94.90;;;;;;5119803;27;20073;-68
2022/06/29 07:03:15;;;;;;;6.65;5.78;;;21.10;95.10;;;;;;5117225;27;20059;-68
2022/06/29 07:05:40;;;;;;;7.18;5.78;;;21.40;94.10;;;;;;5121825;27;20101;-68
2022/06/29 07:08:06;;;;;;;7.22;5.45;;;21.70;91.90;;;;;;5117586;28;20448;-69
2022/06/29 07:10:32;;;;;;;9.25;5.95;;;22.00;91.50;;;;;;5124754;27;20031;-69
2022/06/29 07:12:57;;;;;;;7.38;6.05;;;22.20;90.20;;;;;;5120412;27;20031;-68
2022/06/29 07:15:23;;;;;;;8.10;5.05;;;22.20;90.40;;;;;;5121796;27;20097;-68
2022/06/29 07:17:48;;;;;;;7.25;4.93;;;22.40;89.90;;;;;;5114095;27;20020;-68
2022/06/29 07:20:14;;;;;;;8.10;5.35;;;22.60;89.70;;;;;;5120701;27;20032;-68
2022/06/29 07:22:40;;;;;;;8.30;6.05;;;22.40;89.90;;;;;;5118334;27;20413;-68
2022/06/29 07:25:06;;;;;;;9.13;5.25;;;22.40;89.10;;;;;;5126627;27;20091;-68
2022/06/29 07:27:31;;;;;;;7.25;5.05;;;22.40;89.90;;;;;;5117021;28;20336;-68
2022/06/29 07:29:57;;;;;;;15.05;5.22;;;22.80;88.90;;;;;;5118706;27;20032;-68
2022/06/29 07:32:22;;;;;;;6.97;4.63;;;23.30;86.90;;;;;;5116017;27;20106;-68
2022/06/29 07:34:48;;;;;;;7.18;5.10;;;23.20;86.60;;;;;;5114784;27;20028;-68
2022/06/29 07:37:15;;;;;;;8.48;4.82;;;23.20;86.50;;;;;;5116579;27;20156;-68
2022/06/29 07:39:40;;;;;;;10.48;6.22;;;22.80;88.70;;;;;;5097148;27;20024;-68
2022/06/29 07:42:06;;;;;;;7.55;4.63;;;23.10;87.90;;;;;;5089255;27;20034;-68
2022/06/29 07:44:32;;;;;;;10.25;4.90;;;23.30;87.60;;;;;;5090381;27;20502;-68
2022/06/29 07:46:58;;;;;;;8.13;4.80;;;24.20;85.30;;;;;;5089079;27;20024;-68
2022/06/29 07:49:24;;;;;;;9.10;4.63;;;24.30;84.00;;;;;;5096154;27;20023;-69
2022/06/29 07:51:52;;;;;;;7.53;4.35;;;24.70;83.80;;;;;;5098094;27;20026;-68
2022/06/29 07:54:19;;;;;;;7.85;4.90;;;24.80;83.60;;;;;;5110455;27;20451;-67
2022/06/29 07:56:44;;;;;;;8.70;4.90;;;24.40;83.80;;;;;;5114669;27;21211;-68
2022/06/29 07:59:10;;;;;;;9.85;5.65;;;24.10;84.50;;;;;;5094334;27;20059;-68
2022/06/29 08:01:36;;;;;;;7.75;5.30;;;23.90;84.80;;;;;;5089602;27;20032;-68
2022/06/29 08:04:02;;;;;;;8.90;5.85;;;23.30;86.40;;;;;;5090399;28;20052;-68
2022/06/29 08:06:28;;;;;;;7.05;5.45;;;23.30;86.10;;;;;;5099653;27;20062;-68
2022/06/29 08:08:54;;;;;;;6.30;4.43;;;23.30;86.80;;;;;;5088865;27;20032;-67
2022/06/29 08:11:20;;;;;;;7.28;4.70;;;23.60;86.10;;;;;;5101314;27;20104;-67
2022/06/29 08:13:45;;;;;;;6.88;5.05;;;24.10;84.60;;;;;;5116283;27;20027;-67
2022/06/29 08:16:13;;;;;;;8.23;5.82;;;23.90;84.10;;;;;;5105371;27;20024;-68
2022/06/29 08:18:38;;;;;;;7.63;5.22;;;23.60;85.40;;;;;;5121349;27;20098;-67
2022/06/29 08:21:05;;;;;;;7.57;5.38;;;23.80;84.60;;;;;;5106270;28;20102;-68
2022/06/29 08:23:32;;;;;;;7.68;4.88;;;24.30;82.10;;;;;;5116930;27;20023;-81
2022/06/29 08:25:58;;;;;;;7.20;5.32;;;24.50;81.00;;;;;;5108538;27;20027;-67
2022/06/29 08:28:25;;;;;;;4.28;3.00;;;24.90;80.90;;;;;;5115701;28;20030;-67
2022/06/29 08:30:51;;;;;;;6.93;4.72;;;25.50;79.50;;;;;;5114512;28;20024;-69
2022/06/29 08:33:17;;;;;;;8.25;5.05;;;25.90;78.30;;;;;;5109583;28;20103;-68
2022/06/29 08:35:43;;;;;;;6.15;3.90;;;25.70;78.60;;;;;;5109007;28;20023;-68
2022/06/29 08:38:09;;;;;;;7.18;4.50;;;25.90;79.20;;;;;;5120203;27;20024;-68
2022/06/29 08:40:47;;;;;;;7.50;4.10;;;26.00;78.20;;;;;;5118746;27;20455;-68
2022/06/29 08:43:14;;;;;;;6.28;4.15;;;26.30;77.40;;;;;;5116628;28;20043;-68
2022/06/29 08:45:45;;;;;;;7.80;3.83;;;27.40;74.00;;;;;;5117071;28;20023;-68
2022/06/29 08:48:12;;;;;;;6.47;3.58;;;27.80;73.40;;;;;;5122870;27;20107;-68
2022/06/29 08:50:38;;;;;;;7.72;4.18;;;27.90;73.60;;;;;;5117010;27;20477;-68
2022/06/29 08:53:07;;;;;;;6.90;3.55;;;28.20;73.00;;;;;;5125945;27;20031;-69
2022/06/29 08:55:37;;;;;;;7.10;3.90;;;28.20;70.90;;;;;;5122461;28;20028;-69
2022/06/29 08:58:05;;;;;;;5.93;3.40;;;28.70;70.40;;;;;;5116291;28;20282;-69
2022/06/29 09:00:31;;;;;;;8.23;3.85;;;28.20;71.60;;;;;;5116570;28;20016;-68
2022/06/29 09:02:57;;;;;;;8.45;3.80;;;29.50;71.10;;;;;;5118241;28;20759;-68
2022/06/29 09:05:23;;;;;;;6.63;3.63;;;29.50;67.90;;;;;;5115081;28;20020;-69
2022/06/29 09:07:49;;;;;;;7.07;3.78;;;28.60;70.60;;;;;;5115753;28;20047;-69
2022/06/29 09:10:19;;;;;;;4.93;2.80;;;28.50;71.30;;;;;;5121953;28;20061;-68
2022/06/29 09:12:52;;;;;;;5.28;2.75;;;29.30;69.40;;;;;;5118776;28;20305;-67
2022/06/29 09:15:33;;;;;;;5.97;3.63;;;29.00;69.40;;;;;;5116726;28;20035;-69
2022/06/29 09:18:01;;;;;;;6.70;3.60;;;27.90;72.80;;;;;;5115851;28;20514;-68
2022/06/29 09:20:40;;;;;;;7.43;3.83;;;27.00;74.50;;;;;;5124104;28;20394;-69
2022/06/29 09:23:09;;;;;;;5.50;3.60;;;26.80;76.00;;;;;;5132809;28;20023;-69
2022/06/29 09:25:39;;;;;;;8.27;4.22;;;26.30;77.30;;;;;;5116311;28;20103;-68
2022/06/29 09:28:20;;;;;;;8.73;4.72;;;25.90;77.80;;;;;;5116836;28;20023;-68
2022/06/29 09:30:48;;;;;;;7.90;4.47;;;26.60;76.30;;;;;;5095508;28;20102;-68
2022/06/29 09:33:13;;;;;;;5.85;3.85;;;26.60;76.20;;;;;;5119187;28;20023;-68
2022/06/29 09:35:41;;;;;;;5.97;3.97;;;26.30;77.80;;;;;;5116947;28;20022;-67
2022/06/29 09:38:20;;;;;;;8.88;4.95;;;26.40;77.50;;;;;;5121140;28;20024;-67
2022/06/29 09:41:14;;;;;;;7.13;3.88;;;27.00;74.60;;;;;;5133039;28;20027;-68
2022/06/29 09:43:46;;;;;;;6.70;3.85;;;28.90;72.40;;;;;;5119212;27;20309;-67
2022/06/29 09:46:16;;;;;;;6.32;3.88;;;29.30;70.20;;;;;;5115752;28;20031;-68
2022/06/29 09:48:43;;;;;;;5.70;3.72;;;29.50;69.30;;;;;;5123000;27;20354;-70
2022/06/29 09:51:30;;;;;;;6.78;3.75;;;28.30;71.80;;;;;;5117036;27;20317;-67
2022/06/29 09:54:09;;;;;;;6.50;4.07;;;27.20;74.20;;;;;;5119260;27;20153;-69
2022/06/29 09:56:41;;;;;;;6.03;4.30;;;26.40;76.20;;;;;;5118393;27;20030;-68
2022/06/29 09:59:10;;;;;;;7.05;4.22;;;26.20;76.20;;;;;;5118837;28;20027;-69
2022/06/29 10:04:21;;;;;;;7.68;4.90;;;26.70;76.40;;;;;;5108191;27;20035;-69
2022/06/29 10:06:49;;;;;;;7.28;3.92;;;26.50;75.90;;;;;;5130506;27;20031;-69
2022/06/29 10:09:16;;;;;;;9.63;4.05;;;26.30;76.30;;;;;;5118330;28;20088;-68
2022/06/29 10:15:24;;;;;;;8.32;4.20;;;26.20;78.10;;;;;;5110983;27;20030;-68
2022/06/29 10:18:04;;;;;;;6.25;3.88;;;26.10;76.20;;;;;;5117492;27;20019;-69
2022/06/29 10:20:48;;;;;;;6.05;3.78;;;26.20;75.60;;;;;;5119581;27;20030;-68
2022/06/29 10:23:51;;;;;;;5.50;3.60;;;26.50;75.20;;;;;;5120970;27;20373;-69
2022/06/29 10:26:32;;;;;;;8.95;4.07;;;26.70;73.50;;;;;;5112728;27;20032;-68
2022/06/29 10:29:10;;;;;;;8.57;3.17;;;27.10;73.40;;;;;;5118425;27;20106;-68
2022/06/29 10:34:37;;;;;;;5.47;3.00;;;27.80;69.00;;;;;;5114852;27;20032;-68
2022/06/29 10:37:03;;;;;;;5.82;2.88;;;28.10;68.80;;;;;;5126941;27;20028;-68
2022/06/29 10:39:45;;;;;;;9.02;3.33;;;27.90;69.10;;;;;;5137002;27;20408;-68
2022/06/29 10:45:14;;;;;;;6.05;3.00;;;28.20;69.30;;;;;;5072696;28;20102;-69
2022/06/29 10:47:52;;;;;;;6.78;3.13;;;29.10;68.70;;;;;;5077937;28;20017;-68
2022/06/29 10:50:24;;;;;;;6.18;2.72;;;29.30;67.80;;;;;;5079173;28;20024;-68
2022/06/29 10:52:53;;;;;;;7.28;2.55;;;29.30;66.90;;;;;;5083310;28;20020;-68
2022/06/29 10:55:21;;;;;;;5.32;2.50;;;30.10;68.00;;;;;;5086394;28;20020;-68
2022/06/29 10:57:47;;;;;;;4.80;2.58;;;30.20;63.70;;;;;;5072928;28;20098;-68
2022/06/29 11:00:20;;;;;;;5.55;2.70;;;29.90;64.20;;;;;;5075966;28;20059;-68
2022/06/29 11:02:49;;;;;;;4.50;2.58;;;30.00;64.10;;;;;;5088801;28;20028;-67
2022/06/29 11:05:15;;;;;;;5.75;2.22;;;30.10;64.30;;;;;;5080027;28;20029;-68
2022/06/29 11:13:05;;;;;;;7.82;2.25;;;30.50;64.80;;;;;;5074520;28;20037;-66
2022/06/29 11:15:45;;;;;;;7.82;2.42;;;30.70;63.80;;;;;;5076835;28;20039;-67
2022/06/29 11:18:13;;;;;;;4.20;2.10;;;30.70;62.60;;;;;;5076191;28;20017;-68
2022/06/29 11:20:48;;;;;;;6.53;2.33;;;29.90;64.40;;;;;;5072683;28;20020;-68
2022/06/29 11:23:16;;;;;;;5.88;2.53;;;29.20;66.20;;;;;;5072997;28;20108;-68
2022/06/29 11:25:54;;;;;;;5.82;2.53;;;29.20;66.80;;;;;;5077957;28;20384;-67
2022/06/29 11:28:29;;;;;;;7.93;2.50;;;29.10;68.60;;;;;;5074518;28;20309;-68
2022/06/29 11:31:03;;;;;;;5.65;2.72;;;29.10;67.60;;;;;;5074298;28;20028;-68
2022/06/29 11:33:34;;;;;;;7.63;2.70;;;28.80;68.90;;;;;;5071521;28;20032;-68
2022/06/29 11:36:18;;;;;;;4.55;2.38;;;28.50;68.90;;;;;;5076844;28;20506;-68
2022/06/29 11:38:49;;;;;;;6.30;2.70;;;28.10;70.10;;;;;;5089351;28;20030;-69
2022/06/29 11:41:20;;;;;;;5.78;2.83;;;28.10;69.40;;;;;;5084210;28;20111;-69
2022/06/29 11:44:04;;;;;;;8.10;3.20;;;27.70;70.80;;;;;;5106320;27;20042;-68
2022/06/29 11:46:37;;;;;;;5.15;2.97;;;27.70;71.80;;;;;;5116959;27;20020;-69
2022/06/29 11:51:53;;;;;;;6.80;3.00;;;29.00;69.20;;;;;;5116365;27;20099;-68
2022/06/29 11:54:49;;;;;;;8.13;3.83;;;29.00;69.20;;;;;;5113738;28;20488;-68
2022/06/29 11:57:17;;;;;;;6.38;3.65;;;28.70;69.60;;;;;;5127003;27;20031;-68
2022/06/29 11:59:44;;;;;;;5.75;3.13;;;28.20;70.60;;;;;;5124205;27;20480;-69
2022/06/29 12:02:15;;;;;;;6.47;3.30;;;28.00;70.90;;;;;;5105613;27;20076;-69
2022/06/29 12:04:43;;;;;;;6.63;3.13;;;27.80;71.30;;;;;;5116972;27;20026;-69
2022/06/29 12:07:17;;;;;;;5.80;3.30;;;27.40;73.20;;;;;;5114045;28;20324;-68
2022/06/29 12:09:48;;;;;;;11.57;3.70;;;27.30;72.70;;;;;;5128563;27;20106;-68
2022/06/29 12:12:15;;;;;;;7.95;3.60;;;26.90;73.80;;;;;;5115785;27;20019;-67
2022/06/29 12:14:42;;;;;;;6.85;3.80;;;26.70;75.30;;;;;;5115666;27;20066;-68
2022/06/29 12:17:10;;;;;;;7.22;4.18;;;26.80;74.90;;;;;;5105171;27;20031;-67
2022/06/29 12:19:38;;;;;;;6.43;3.47;;;26.80;74.40;;;;;;5094974;28;20035;-67
2022/06/29 12:22:04;;;;;;;6.00;3.30;;;27.10;76.80;;;;;;5114334;28;20028;-68
2022/06/29 12:24:30;;;;;;;7.07;3.67;;;28.40;73.00;;;;;;5112946;27;20023;-68
2022/06/29 12:26:56;;;;;;;8.82;3.28;;;28.20;71.30;;;;;;5114260;28;20047;-68
2022/06/29 12:29:21;;;;;;;5.88;3.55;;;27.40;72.60;;;;;;5115422;28;20058;-67
2022/06/29 12:31:47;;;;;;;6.45;3.58;;;26.90;73.90;;;;;;5114801;28;20027;-67
2022/06/29 12:34:15;;;;;;;5.53;3.50;;;26.40;74.30;;;;;;5111306;27;20023;-67
2022/06/29 12:36:41;;;;;;;9.50;4.45;;;26.30;76.30;;;;;;5114129;28;20409;-66
2022/06/29 12:39:07;;;;;;;8.80;4.50;;;25.70;78.10;;;;;;5111038;28;20032;-67
2022/06/29 12:41:35;;;;;;;9.15;3.95;;;25.50;79.70;;;;;;5113057;28;20072;-68
2022/06/29 12:44:02;;;;;;;7.45;4.65;;;25.80;79.70;;;;;;5115285;28;20050;-68
2022/06/29 12:46:31;;;;;;;6.65;3.97;;;26.40;77.20;;;;;;5124864;27;20115;-66
2022/06/29 12:49:00;;;;;;;9.55;4.47;;;26.20;78.00;;;;;;5111037;28;20392;-67
2022/06/29 12:51:27;;;;;;;10.40;4.53;;;26.20;78.10;;;;;;5114944;28;20062;-66
2022/06/29 12:53:52;;;;;;;9.27;4.55;;;25.70;78.20;;;;;;5116330;28;20031;-67
2022/06/29 12:56:18;;;;;;;7.80;4.25;;;25.80;78.70;;;;;;5135166;28;20034;-67
2022/06/29 12:58:44;;;;;;;7.47;4.63;;;26.10;78.80;;;;;;5112245;28;20028;-68
2022/06/29 13:01:10;;;;;;;6.88;4.47;;;26.70;77.60;;;;;;5113491;28;20034;-68
2022/06/29 13:03:37;;;;;;;7.35;3.90;;;27.30;74.80;;;;;;5111766;28;20106;-68
2022/06/29 13:06:02;;;;;;;6.07;3.20;;;28.20;73.00;;;;;;5129126;28;20110;-69
2022/06/29 13:08:29;;;;;;;5.40;3.78;;;29.40;71.60;;;;;;5126484;28;20118;-68
2022/06/29 13:10:54;;;;;;;6.53;3.47;;;30.30;68.10;;;;;;5114217;28;20440;-68
2022/06/29 13:13:20;;;;;;;5.85;3.05;;;29.40;69.30;;;;;;5114339;28;20059;-68